Time;durP1;ratioP1;P1;durP2;ratioP2;P2;SDS_P1;SDS_P2;PMS_P1;PMS_P2;Temp;Humidity;BMP_temperature;BMP_pressure;BME280_temperature;BME280_humidity;BME280_pressure;Samples;Min_cycle;Max_cycle;Signal;HPM_P1;HPM_P2
2022/08/20 00:02:25;;;;;;;23.40;19.48;;;25.10;1.00;;;;;;10343919;28;20189;-77
2022/08/20 00:07:47;;;;;;;20.98;18.77;;;24.90;1.00;;;;;;10318324;28;20207;-76
2022/08/20 00:13:12;;;;;;;27.08;21.77;;;24.70;99.90;;;;;;10318291;28;20489;-77
2022/08/20 00:18:36;;;;;;;25.77;23.08;;;24.50;99.90;;;;;;10317935;28;20222;-79
2022/08/20 00:23:58;;;;;;;26.42;22.75;;;24.30;99.90;;;;;;10316842;28;20270;-79
2022/08/20 00:29:20;;;;;;;21.27;18.85;;;23.90;99.90;;;;;;10324815;28;20193;-80
2022/08/20 00:34:41;;;;;;;20.30;17.83;;;23.70;99.90;;;;;;10398258;28;20189;-76
2022/08/20 00:40:06;;;;;;;19.33;15.98;;;23.60;99.90;;;;;;10397976;28;20212;-77
2022/08/20 00:45:31;;;;;;;19.20;16.52;;;23.50;99.90;;;;;;10397713;28;20185;-76
2022/08/20 00:50:57;;;;;;;19.40;15.55;;;23.50;99.90;;;;;;10397625;28;20427;-76
2022/08/20 00:56:19;;;;;;;16.38;14.68;;;23.40;99.90;;;;;;10324113;28;20234;-76
2022/08/20 01:01:42;;;;;;;17.33;12.60;;;23.50;99.90;;;;;;10341974;28;20190;-77
2022/08/20 01:07:05;;;;;;;15.63;12.52;;;23.50;99.90;;;;;;10318896;28;20256;-77
2022/08/20 01:12:29;;;;;;;13.60;12.30;;;23.50;99.90;;;;;;10315870;28;20261;-76
2022/08/20 01:17:53;;;;;;;16.98;11.82;;;23.50;99.90;;;;;;10315280;28;20269;-76
2022/08/20 01:23:26;;;;;;;14.85;11.90;;;23.60;99.90;;;;;;10315453;28;20198;-76
2022/08/20 01:28:53;;;;;;;16.45;12.65;;;23.40;99.90;;;;;;10300713;28;20381;-76
2022/08/20 01:34:17;;;;;;;15.18;13.07;;;23.40;99.90;;;;;;10338149;28;20240;-77
2022/08/20 01:39:38;;;;;;;15.65;13.23;;;23.30;99.90;;;;;;10354644;28;20229;-75
2022/08/20 01:45:00;;;;;;;14.90;13.15;;;23.20;99.90;;;;;;10354965;28;20195;-75
2022/08/20 01:50:26;;;;;;;14.27;12.85;;;23.20;99.90;;;;;;10355168;28;20451;-78
2022/08/20 01:55:47;;;;;;;16.98;13.18;;;23.10;99.90;;;;;;10339512;28;20225;-78
2022/08/20 02:01:20;;;;;;;17.65;13.40;;;23.10;99.90;;;;;;10340180;28;20189;-78
2022/08/20 02:06:45;;;;;;;18.17;13.75;;;23.00;99.90;;;;;;10313682;28;20229;-77
2022/08/20 02:12:08;;;;;;;17.17;15.05;;;22.90;99.90;;;;;;10329417;28;20207;-77
2022/08/20 02:17:30;;;;;;;14.77;13.23;;;22.80;99.90;;;;;;10314444;28;20252;-78
2022/08/20 02:22:55;;;;;;;13.57;12.23;;;22.90;99.90;;;;;;10329277;28;20202;-79
2022/08/20 02:28:18;;;;;;;16.67;12.57;;;22.90;99.90;;;;;;10313993;28;20205;-78
2022/08/20 02:33:39;;;;;;;14.10;12.65;;;22.90;99.90;;;;;;10391342;28;20243;-77
2022/08/20 02:39:04;;;;;;;14.35;12.32;;;23.00;99.90;;;;;;10394808;28;20614;-77
2022/08/20 02:44:25;;;;;;;14.77;13.02;;;23.00;99.90;;;;;;10394656;28;20193;-78
2022/08/20 02:49:47;;;;;;;16.42;13.27;;;22.90;99.90;;;;;;10377191;28;20201;-79
2022/08/20 02:55:09;;;;;;;14.13;12.65;;;22.80;99.90;;;;;;10355594;28;20280;-77
2022/08/20 03:00:32;;;;;;;15.20;12.25;;;22.80;99.90;;;;;;10361149;28;20209;-77
2022/08/20 03:05:56;;;;;;;15.55;12.93;;;22.80;99.90;;;;;;10335803;28;20194;-78
2022/08/20 03:11:18;;;;;;;17.35;15.15;;;22.90;99.90;;;;;;10320090;28;20529;-77
2022/08/20 03:16:39;;;;;;;15.90;14.25;;;22.80;99.90;;;;;;10319252;28;20222;-77
2022/08/20 03:22:01;;;;;;;20.75;14.13;;;22.80;99.90;;;;;;10320014;28;20198;-77
2022/08/20 03:27:22;;;;;;;15.85;14.20;;;22.70;99.90;;;;;;10318943;28;20198;-77
2022/08/20 03:32:44;;;;;;;19.05;15.30;;;22.70;99.90;;;;;;10381836;28;20240;-76
2022/08/20 03:38:08;;;;;;;16.15;14.32;;;22.70;99.90;;;;;;10385667;28;20227;-77
2022/08/20 03:43:31;;;;;;;19.27;15.63;;;22.60;99.90;;;;;;10400298;28;20197;-76
2022/08/20 03:48:52;;;;;;;16.45;14.82;;;22.70;99.90;;;;;;10399848;28;20193;-76
2022/08/20 03:54:14;;;;;;;19.85;16.80;;;22.70;99.90;;;;;;10360852;28;20198;-76
2022/08/20 03:59:35;;;;;;;17.67;15.57;;;22.70;99.90;;;;;;10358865;28;20218;-77
2022/08/20 04:04:56;;;;;;;17.13;15.23;;;22.70;99.90;;;;;;10309625;28;20197;-76
2022/08/20 04:10:18;;;;;;;18.92;16.90;;;22.70;99.90;;;;;;10318069;28;20421;-76
2022/08/20 04:15:40;;;;;;;17.75;15.68;;;22.80;99.90;;;;;;10317944;28;20421;-76
2022/08/20 04:21:03;;;;;;;21.83;18.92;;;22.70;99.90;;;;;;10316843;28;20190;-76
2022/08/20 04:26:25;;;;;;;20.58;18.40;;;22.80;99.90;;;;;;10317290;28;20198;-76
2022/08/20 04:31:47;;;;;;;19.75;17.73;;;22.80;99.90;;;;;;10363255;28;20240;-76
2022/08/20 04:37:10;;;;;;;23.13;20.77;;;22.70;99.90;;;;;;10397994;28;20228;-76
2022/08/20 04:42:31;;;;;;;19.80;17.80;;;22.70;99.90;;;;;;10383285;28;20196;-76
2022/08/20 04:47:53;;;;;;;23.55;20.17;;;22.70;99.90;;;;;;10397840;28;20197;-76
2022/08/20 04:53:17;;;;;;;24.60;19.33;;;22.70;99.90;;;;;;10351951;28;20249;-76
2022/08/20 04:58:42;;;;;;;20.23;17.95;;;22.70;99.90;;;;;;10355687;28;20296;-76
2022/08/20 05:04:03;;;;;;;20.60;18.40;;;22.80;99.90;;;;;;10343531;28;20190;-77
2022/08/20 05:09:25;;;;;;;22.40;20.00;;;22.90;99.90;;;;;;10316253;28;20225;-76
2022/08/20 05:14:46;;;;;;;21.13;19.00;;;22.90;99.90;;;;;;10316294;28;20418;-77
2022/08/20 05:20:12;;;;;;;19.42;17.42;;;23.00;99.90;;;;;;10315797;28;20293;-76
2022/08/20 05:25:34;;;;;;;20.83;18.80;;;23.10;99.90;;;;;;10315736;28;20195;-76
2022/08/20 05:30:56;;;;;;;21.23;19.02;;;23.10;99.90;;;;;;10363913;28;20267;-76
2022/08/20 05:36:17;;;;;;;21.70;19.60;;;23.10;99.90;;;;;;10395968;28;20221;-77
2022/08/20 05:41:39;;;;;;;24.63;20.73;;;23.20;99.90;;;;;;10396266;28;20200;-76
2022/08/20 05:47:01;;;;;;;25.73;22.85;;;23.20;99.90;;;;;;10396084;28;20219;-77
2022/08/20 05:52:23;;;;;;;21.45;19.35;;;23.20;99.90;;;;;;10379241;28;20511;-77
2022/08/20 05:57:44;;;;;;;20.55;18.65;;;23.20;99.90;;;;;;10350996;28;20304;-76
2022/08/20 06:08:47;;;;;;;19.83;17.63;;;23.40;99.90;;;;;;10314895;28;20194;-77
2022/08/20 06:14:08;;;;;;;22.73;19.48;;;23.60;99.90;;;;;;10314814;28;20418;-76
2022/08/20 06:19:29;;;;;;;19.58;17.58;;;23.70;99.90;;;;;;10314540;28;20599;-77
2022/08/20 06:24:50;;;;;;;20.50;18.23;;;23.90;99.90;;;;;;10313791;28;20262;-77
2022/08/20 06:30:14;;;;;;;21.45;19.15;;;24.00;99.90;;;;;;10343496;28;20315;-77
2022/08/20 06:35:36;;;;;;;20.08;17.90;;;24.00;99.90;;;;;;10402766;28;20575;-77
2022/08/20 06:40:58;;;;;;;18.77;16.77;;;24.00;99.90;;;;;;10388134;28;20200;-77
2022/08/20 06:46:22;;;;;;;17.70;15.90;;;24.00;99.90;;;;;;10384858;28;20205;-76
2022/08/20 06:51:43;;;;;;;16.42;14.93;;;23.90;99.90;;;;;;10396425;28;20198;-77
2022/08/20 06:57:05;;;;;;;16.40;14.88;;;23.90;99.90;;;;;;10352051;28;20296;-77
2022/08/20 07:02:26;;;;;;;17.95;16.15;;;24.00;99.90;;;;;;10359982;28;20241;-76
2022/08/20 07:07:49;;;;;;;18.27;16.42;;;24.00;99.90;;;;;;10320763;28;20485;-77
2022/08/20 07:13:12;;;;;;;18.45;16.10;;;24.20;99.90;;;;;;10335593;28;20198;-77
2022/08/20 07:18:35;;;;;;;17.85;16.05;;;24.20;99.90;;;;;;10319976;28;20592;-78
2022/08/20 07:23:56;;;;;;;22.15;19.90;;;24.60;99.90;;;;;;10335126;28;20249;-80
2022/08/20 07:29:18;;;;;;;19.67;17.52;;;24.90;99.90;;;;;;10326829;28;20206;-77
2022/08/20 07:34:40;;;;;;;21.63;19.42;;;25.20;99.90;;;;;;10382797;28;20201;-78
2022/08/20 07:40:03;;;;;;;19.90;17.85;;;25.60;99.90;;;;;;10398941;28;20221;-77
2022/08/20 07:45:24;;;;;;;20.17;18.17;;;25.90;99.90;;;;;;10385217;28;20472;-77
2022/08/20 07:50:47;;;;;;;19.90;17.85;;;25.80;99.90;;;;;;10382589;28;20197;-80
2022/08/20 07:56:11;;;;;;;24.92;20.98;;;25.90;99.90;;;;;;10345464;28;20437;-80
2022/08/20 08:01:32;;;;;;;21.73;17.90;;;25.70;99.90;;;;;;10357837;28;20239;-78
2022/08/20 08:06:58;;;;;;;28.30;21.63;;;25.40;99.90;;;;;;10333315;28;20198;-77
2022/08/20 08:12:21;;;;;;;25.10;22.15;;;25.30;99.90;;;;;;10333006;28;20207;-77
2022/08/20 08:17:45;;;;;;;22.15;19.77;;;25.30;99.90;;;;;;10316663;28;20261;-77
2022/08/20 08:23:10;;;;;;;30.50;24.20;;;25.30;99.90;;;;;;10317536;28;20548;-78
2022/08/20 08:28:32;;;;;;;23.77;21.38;;;25.30;99.90;;;;;;10317383;28;20204;-77
2022/08/20 08:33:54;;;;;;;31.70;21.10;;;25.30;99.90;;;;;;10379493;28;20240;-77
2022/08/20 08:39:15;;;;;;;26.58;23.80;;;25.20;99.90;;;;;;10380451;28;20300;-78
2022/08/20 08:44:40;;;;;;;23.67;21.27;;;25.10;99.90;;;;;;10382964;28;20193;-78
2022/08/20 08:50:04;;;;;;;26.42;23.70;;;25.30;99.90;;;;;;10397165;28;20193;-78
2022/08/20 08:55:28;;;;;;;25.55;22.08;;;25.40;99.90;;;;;;10348904;28;20407;-78
2022/08/20 09:00:50;;;;;;;26.08;23.45;;;25.30;99.90;;;;;;10356357;28;20272;-79
2022/08/20 09:06:15;;;;;;;23.80;21.40;;;25.20;99.90;;;;;;10326280;28;20201;-78
2022/08/20 09:11:49;;;;;;;24.63;21.77;;;25.00;99.90;;;;;;10315853;28;20194;-79
2022/08/20 09:17:10;;;;;;;27.35;21.23;;;24.90;99.90;;;;;;10330571;28;20262;-78
2022/08/20 09:22:32;;;;;;;25.05;22.55;;;24.80;99.90;;;;;;10314631;28;20391;-77
2022/08/20 09:27:54;;;;;;;23.13;20.77;;;24.90;99.90;;;;;;10315382;28;20198;-78
2022/08/20 09:33:15;;;;;;;23.25;20.95;;;24.80;99.90;;;;;;10361993;28;20235;-78
2022/08/20 09:38:36;;;;;;;23.13;20.65;;;24.80;99.90;;;;;;10378630;28;20255;-77
2022/08/20 09:43:58;;;;;;;26.48;23.77;;;25.00;99.90;;;;;;10381459;28;20487;-79
2022/08/20 09:49:19;;;;;;;26.98;24.30;;;25.20;99.90;;;;;;10381379;28;20205;-78
2022/08/20 09:54:40;;;;;;;26.17;23.58;;;25.30;99.90;;;;;;10322557;28;20209;-77
2022/08/20 10:00:12;;;;;;;27.80;25.00;;;25.40;99.90;;;;;;10354636;28;20272;-78
2022/08/20 10:05:33;;;;;;;23.92;20.20;;;25.40;99.90;;;;;;10323451;28;20408;-77
2022/08/20 10:10:55;;;;;;;18.45;16.55;;;25.30;99.90;;;;;;10322656;28;20197;-77
2022/08/20 10:16:16;;;;;;;19.10;17.10;;;25.10;99.90;;;;;;10322433;28;20194;-79
2022/08/20 10:21:38;;;;;;;19.52;16.50;;;25.00;99.90;;;;;;10322305;28;20229;-79
2022/08/20 10:27:00;;;;;;;20.20;18.08;;;25.20;99.90;;;;;;10322090;28;20194;-79
2022/08/20 10:32:22;;;;;;;22.40;18.27;;;25.60;99.90;;;;;;10358049;28;20249;-82
2022/08/20 10:37:44;;;;;;;19.27;17.08;;;25.90;99.90;;;;;;10358110;28;20221;-77
2022/08/20 10:43:05;;;;;;;17.27;15.60;;;25.90;99.90;;;;;;10359870;28;20194;-77
2022/08/20 10:48:27;;;;;;;21.17;18.52;;;25.80;99.90;;;;;;10360636;28;20190;-78
2022/08/20 10:53:50;;;;;;;21.98;19.63;;;25.50;99.90;;;;;;10358415;28;20206;-81
2022/08/20 10:59:11;;;;;;;22.35;19.98;;;25.30;99.90;;;;;;10357582;28;20301;-80
2022/08/20 11:04:33;;;;;;;21.05;18.80;;;25.00;99.90;;;;;;10325830;28;20195;-78
2022/08/20 11:09:55;;;;;;;20.85;18.67;;;25.00;99.90;;;;;;10334204;28;20444;-77
2022/08/20 11:15:16;;;;;;;20.95;18.90;;;25.00;99.90;;;;;;10320394;28;20249;-77
2022/08/20 11:20:38;;;;;;;20.20;18.33;;;25.00;99.90;;;;;;10320440;28;20222;-78
2022/08/20 11:25:59;;;;;;;19.08;17.17;;;25.00;99.90;;;;;;10319906;28;20222;-78
2022/08/20 11:31:20;;;;;;;20.05;16.95;;;25.00;99.90;;;;;;10360020;28;20468;-77
2022/08/20 11:36:42;;;;;;;22.33;18.90;;;25.00;99.90;;;;;;10400430;28;20217;-76
2022/08/20 11:42:04;;;;;;;20.15;18.05;;;25.00;99.90;;;;;;10385666;28;20212;-77
2022/08/20 11:47:28;;;;;;;19.40;17.60;;;25.00;99.90;;;;;;10399991;28;20216;-77
2022/08/20 11:52:49;;;;;;;20.85;18.25;;;25.20;99.90;;;;;;10361301;28;20378;-78
2022/08/20 11:58:11;;;;;;;20.80;18.73;;;25.10;99.90;;;;;;10358530;28;20225;-78
2022/08/20 12:03:32;;;;;;;20.90;17.58;;;25.10;99.90;;;;;;10350036;28;20194;-77
2022/08/20 12:08:53;;;;;;;21.63;18.13;;;25.20;99.90;;;;;;10318253;28;20198;-76
2022/08/20 12:14:15;;;;;;;19.73;17.63;;;25.20;99.90;;;;;;10318254;28;20194;-77
2022/08/20 12:19:41;;;;;;;22.15;19.95;;;25.30;99.90;;;;;;10333131;28;20525;-77
2022/08/20 12:25:03;;;;;;;22.40;19.92;;;25.30;99.90;;;;;;10317057;28;20270;-77
2022/08/20 12:30:25;;;;;;;26.13;20.42;;;25.30;99.90;;;;;;10327900;28;20240;-77
2022/08/20 12:35:46;;;;;;;21.23;18.02;;;25.30;99.90;;;;;;10380565;28;20209;-77
2022/08/20 12:41:07;;;;;;;20.73;18.67;;;25.30;99.90;;;;;;10383568;28;20224;-77
2022/08/20 12:46:28;;;;;;;19.92;17.83;;;25.30;99.90;;;;;;10383321;28;20399;-77
2022/08/20 12:51:50;;;;;;;19.33;17.48;;;25.20;99.90;;;;;;10374928;28;20261;-77
2022/08/20 12:57:21;;;;;;;17.95;16.15;;;25.10;99.90;;;;;;10333995;28;20241;-77
2022/08/20 13:02:43;;;;;;;22.17;18.38;;;25.10;99.90;;;;;;10353320;28;20217;-77
2022/08/20 13:08:08;;;;;;;20.90;18.45;;;25.20;99.90;;;;;;10316100;28;20214;-77
2022/08/20 13:13:29;;;;;;;22.55;18.33;;;25.30;99.90;;;;;;10331295;28;20202;-77
2022/08/20 13:18:51;;;;;;;18.83;17.05;;;25.30;99.90;;;;;;10315829;28;20377;-76
2022/08/20 13:24:12;;;;;;;18.55;16.80;;;25.40;99.90;;;;;;10315820;28;20213;-76
2022/08/20 13:29:34;;;;;;;17.90;16.05;;;25.50;99.90;;;;;;10326814;28;20203;-77
2022/08/20 13:34:55;;;;;;;17.92;16.10;;;25.60;99.90;;;;;;10314840;28;20195;-77
2022/08/20 13:40:17;;;;;;;21.15;18.50;;;25.80;99.90;;;;;;10315221;28;20579;-76
2022/08/20 13:45:39;;;;;;;20.63;17.13;;;25.90;99.90;;;;;;10315287;28;20190;-77
2022/08/20 13:51:01;;;;;;;21.67;16.75;;;25.90;99.90;;;;;;10314134;28;20421;-77
2022/08/20 13:56:22;;;;;;;18.67;15.68;;;26.00;99.90;;;;;;10260033;29;20207;-77
2022/08/20 14:01:44;;;;;;;17.70;15.38;;;26.10;99.90;;;;;;10289588;28;20211;-77
2022/08/20 14:07:14;;;;;;;19.02;17.05;;;26.30;99.90;;;;;;10274041;29;20371;-77
2022/08/20 14:12:36;;;;;;;18.70;15.95;;;26.30;99.90;;;;;;10274825;28;20231;-77
2022/08/20 14:17:57;;;;;;;17.35;15.57;;;26.20;99.90;;;;;;10274406;28;20227;-77
2022/08/20 14:23:19;;;;;;;17.40;15.63;;;26.10;99.90;;;;;;10273746;29;20199;-77
2022/08/20 14:28:41;;;;;;;17.67;15.82;;;26.00;99.90;;;;;;10274417;28;20222;-77
2022/08/20 14:34:02;;;;;;;16.92;15.23;;;25.90;99.90;;;;;;10284523;28;20314;-77
2022/08/20 14:39:24;;;;;;;16.40;14.80;;;25.90;99.90;;;;;;10273257;28;20223;-77
2022/08/20 14:44:45;;;;;;;15.00;13.60;;;25.90;99.90;;;;;;10259696;29;20235;-76
2022/08/20 14:50:10;;;;;;;17.67;15.88;;;25.90;99.90;;;;;;10251793;29;20254;-78
2022/08/20 14:55:36;;;;;;;16.52;14.80;;;25.90;99.90;;;;;;10298306;28;20493;-77
2022/08/20 15:00:57;;;;;;;18.60;15.30;;;25.80;99.90;;;;;;10306289;28;20250;-77
2022/08/20 15:06:19;;;;;;;18.48;16.45;;;25.80;99.90;;;;;;10289589;28;20275;-78
2022/08/20 15:11:40;;;;;;;16.83;15.00;;;25.70;99.90;;;;;;10280569;28;20202;-77
2022/08/20 15:17:02;;;;;;;17.52;15.57;;;25.70;99.90;;;;;;10279444;29;20206;-78
2022/08/20 15:22:23;;;;;;;17.63;15.82;;;25.80;99.90;;;;;;10280278;28;20206;-77
2022/08/20 15:27:45;;;;;;;16.48;14.90;;;25.90;99.90;;;;;;10280135;28;20481;-77
2022/08/20 15:33:08;;;;;;;16.85;15.13;;;26.20;99.90;;;;;;10375960;28;20310;-77
2022/08/20 15:38:31;;;;;;;17.35;15.55;;;26.30;99.90;;;;;;10382694;28;20303;-77
2022/08/20 15:43:53;;;;;;;15.68;14.07;;;26.10;99.90;;;;;;10385542;28;20264;-77
2022/08/20 15:49:14;;;;;;;18.00;15.93;;;25.90;99.90;;;;;;10400101;28;20235;-78
2022/08/20 15:54:35;;;;;;;16.15;14.63;;;25.80;99.90;;;;;;10343798;28;20492;-78
2022/08/20 16:00:18;;;;;;;16.65;14.82;;;25.50;99.90;;;;;;10358141;28;20222;-77
2022/08/20 16:06:09;;;;;;;16.98;14.40;;;25.60;99.90;;;;;;10333571;28;20204;-77
2022/08/20 16:11:57;;;;;;;15.77;14.15;;;25.60;99.90;;;;;;10318517;28;20198;-78
2022/08/20 16:17:29;;;;;;;15.35;13.55;;;25.60;99.90;;;;;;10303614;28;20226;-78
2022/08/20 16:22:51;;;;;;;16.35;14.73;;;25.60;99.90;;;;;;10317909;28;20198;-78
2022/08/20 16:28:23;;;;;;;15.05;13.57;;;25.60;99.90;;;;;;10317641;28;20270;-78
2022/08/20 16:34:12;;;;;;;14.20;12.70;;;25.50;99.90;;;;;;10381688;28;20237;-78
2022/08/20 16:40:05;;;;;;;14.10;12.68;;;25.40;99.90;;;;;;10398273;28;20398;-76
2022/08/20 16:45:31;;;;;;;15.82;14.23;;;25.40;99.90;;;;;;10233903;29;20210;-78
2022/08/20 16:50:57;;;;;;;15.02;13.52;;;25.30;99.90;;;;;;10233471;29;20215;-78
2022/08/20 16:56:39;;;;;;;15.98;14.32;;;25.30;99.90;;;;;;10178898;29;20213;-78
2022/08/20 17:02:06;;;;;;;17.52;15.73;;;25.20;99.90;;;;;;10194117;29;20216;-78
2022/08/20 17:07:44;;;;;;;16.50;14.82;;;25.10;99.90;;;;;;10154959;29;20213;-79
2022/08/20 17:13:22;;;;;;;19.33;16.25;;;25.00;99.90;;;;;;10154022;29;20213;-79
2022/08/20 17:18:49;;;;;;;18.35;16.45;;;24.80;99.90;;;;;;10172052;28;20238;-77
2022/08/20 17:24:27;;;;;;;18.80;16.77;;;24.60;99.90;;;;;;10315863;28;20249;-77
2022/08/20 17:29:55;;;;;;;17.88;15.48;;;24.40;99.90;;;;;;10328988;28;20201;-78
2022/08/20 17:35:33;;;;;;;16.52;14.52;;;24.20;99.90;;;;;;10378639;28;20205;-80
2022/08/20 17:41:06;;;;;;;15.20;13.70;;;24.00;99.90;;;;;;10396131;28;20288;-81
2022/08/20 17:46:32;;;;;;;15.77;13.98;;;23.90;99.90;;;;;;10378728;28;20388;-81
2022/08/20 17:51:54;;;;;;;16.83;13.70;;;23.80;99.90;;;;;;10387562;28;20202;-80
2022/08/20 17:57:22;;;;;;;15.85;13.27;;;23.70;99.90;;;;;;10346703;28;20211;-78
2022/08/20 18:02:43;;;;;;;17.20;13.57;;;23.50;99.90;;;;;;10352832;28;20488;-78
2022/08/20 18:08:14;;;;;;;13.60;12.20;;;23.40;99.90;;;;;;10314053;28;20405;-76
2022/08/20 18:13:47;;;;;;;16.27;13.75;;;23.40;99.90;;;;;;10313739;28;20481;-78
2022/08/20 18:19:58;;;;;;;17.10;14.45;;;23.30;99.90;;;;;;10329535;28;20238;-80
2022/08/20 18:25:28;;;;;;;17.42;15.43;;;23.20;99.90;;;;;;10320829;28;20253;-81
2022/08/20 18:31:02;;;;;;;19.70;15.07;;;23.00;99.90;;;;;;10339067;28;20240;-81
2022/08/20 18:36:29;;;;;;;17.85;15.95;;;23.10;99.90;;;;;;10371766;28;20208;-77
2022/08/20 18:42:09;;;;;;;18.35;15.80;;;22.90;99.90;;;;;;10371275;28;20228;-79
2022/08/20 18:47:34;;;;;;;19.92;17.02;;;22.90;99.90;;;;;;10387832;28;20189;-78
2022/08/20 18:53:18;;;;;;;22.80;16.63;;;22.80;99.90;;;;;;10345748;28;20290;-79
2022/08/20 18:58:58;;;;;;;18.90;16.90;;;22.80;99.90;;;;;;10320204;28;20451;-79
2022/08/20 19:04:30;;;;;;;19.83;16.73;;;22.80;99.90;;;;;;10321648;28;20205;-77
2022/08/20 19:10:12;;;;;;;18.27;16.35;;;22.70;99.90;;;;;;10360904;28;20190;-78
2022/08/20 19:15:41;;;;;;;19.13;15.80;;;22.70;99.90;;;;;;10358311;28;20209;-79
2022/08/20 19:21:03;;;;;;;17.13;15.32;;;22.70;99.90;;;;;;10360425;28;20226;-78
2022/08/20 19:26:28;;;;;;;17.63;15.85;;;22.70;99.90;;;;;;10359303;28;20201;-77
2022/08/20 19:31:57;;;;;;;20.25;15.00;;;22.70;99.90;;;;;;10381811;28;20300;-77
2022/08/20 19:37:29;;;;;;;22.45;16.48;;;22.70;99.90;;;;;;10400310;28;20380;-80
2022/08/20 19:42:50;;;;;;;23.52;16.15;;;22.60;99.90;;;;;;10400523;28;20575;-76
2022/08/20 19:48:37;;;;;;;19.33;15.45;;;22.60;99.90;;;;;;10400246;28;20200;-80
2022/08/20 19:53:59;;;;;;;20.65;17.08;;;22.50;99.90;;;;;;10363188;28;20225;-76
2022/08/20 19:59:21;;;;;;;18.00;16.20;;;22.50;99.90;;;;;;10359087;28;20293;-77
2022/08/20 20:04:42;;;;;;;19.77;17.40;;;22.40;99.90;;;;;;10325883;28;20214;-76
2022/08/20 20:10:08;;;;;;;18.52;15.70;;;22.20;99.90;;;;;;10318449;28;20195;-76
2022/08/20 20:15:30;;;;;;;21.30;17.48;;;22.20;99.90;;;;;;10317524;28;20198;-77
2022/08/20 20:20:56;;;;;;;21.33;17.40;;;21.80;99.90;;;;;;10317820;28;20225;-77
2022/08/20 20:26:19;;;;;;;18.35;16.33;;;21.80;99.90;;;;;;10317971;28;20201;-76
2022/08/20 20:31:53;;;;;;;20.63;18.25;;;21.80;99.90;;;;;;10362549;28;20241;-77
2022/08/20 20:37:33;;;;;;;22.02;19.05;;;21.70;99.90;;;;;;10380699;28;20547;-77
2022/08/20 20:42:59;;;;;;;21.67;18.17;;;21.70;99.90;;;;;;10398174;28;20205;-76
2022/08/20 20:48:25;;;;;;;18.38;15.57;;;21.70;99.90;;;;;;10396774;28;20200;-77
2022/08/20 20:53:48;;;;;;;21.73;16.33;;;21.80;99.90;;;;;;10362656;28;20209;-77
2022/08/20 20:59:14;;;;;;;18.33;15.95;;;21.80;99.90;;;;;;10356738;28;20288;-77
2022/08/20 21:04:35;;;;;;;23.55;17.67;;;21.90;99.90;;;;;;10324628;28;20563;-77
2022/08/20 21:09:59;;;;;;;18.73;16.33;;;21.90;99.90;;;;;;10316371;28;20480;-77
2022/08/20 21:15:22;;;;;;;19.08;16.27;;;21.80;99.90;;;;;;10315299;28;20220;-77
2022/08/20 21:20:44;;;;;;;17.40;14.68;;;21.70;99.90;;;;;;10330645;28;20230;-77
2022/08/20 21:26:06;;;;;;;15.82;13.88;;;21.60;99.90;;;;;;10314991;28;20265;-76
2022/08/20 21:31:32;;;;;;;14.13;12.30;;;21.60;99.90;;;;;;10371894;28;20271;-77
2022/08/20 21:36:54;;;;;;;11.85;10.68;;;21.40;99.90;;;;;;10396193;28;20193;-77
2022/08/20 21:42:17;;;;;;;10.65;9.55;;;21.40;99.90;;;;;;10396160;28;20220;-76
2022/08/20 21:47:39;;;;;;;10.77;9.65;;;21.50;99.90;;;;;;10395721;28;20201;-76
2022/08/20 21:53:01;;;;;;;12.55;10.20;;;21.40;99.90;;;;;;10354845;28;20225;-78
2022/08/20 21:58:22;;;;;;;12.15;10.05;;;21.20;99.90;;;;;;10283323;28;20264;-76
2022/08/20 22:03:44;;;;;;;8.98;8.07;;;21.20;99.90;;;;;;10325107;28;20189;-78
2022/08/20 22:09:06;;;;;;;6.78;6.15;;;21.10;99.90;;;;;;10354995;28;20201;-78
2022/08/20 22:14:28;;;;;;;4.70;4.25;;;21.20;99.90;;;;;;10337519;28;20265;-77
2022/08/20 22:19:49;;;;;;;4.50;4.10;;;21.10;99.90;;;;;;10354784;28;20576;-77
2022/08/20 22:25:11;;;;;;;3.85;3.40;;;21.00;99.90;;;;;;10340495;28;20248;-76
2022/08/20 22:30:32;;;;;;;3.80;3.40;;;21.00;99.90;;;;;;10366689;28;20271;-76
2022/08/20 22:35:55;;;;;;;4.20;3.15;;;;;;;;;;10364022;28;20511;-77
2022/08/20 22:41:17;;;;;;;3.70;2.75;;;20.80;99.90;;;;;;10377632;28;20232;-78
2022/08/20 22:46:40;;;;;;;2.60;2.40;;;20.80;99.90;;;;;;10379994;28;20213;-76
2022/08/20 22:52:07;;;;;;;2.80;2.60;;;20.90;99.90;;;;;;10383252;28;20233;-77
2022/08/20 22:57:29;;;;;;;2.75;2.50;;;20.80;99.90;;;;;;10316997;28;20206;-76
2022/08/20 23:02:54;;;;;;;2.75;2.55;;;20.80;99.90;;;;;;10350696;28;20193;-76
2022/08/20 23:08:15;;;;;;;3.15;2.85;;;20.90;99.90;;;;;;10314580;28;20535;-77
2022/08/20 23:13:37;;;;;;;2.90;2.60;;;20.80;99.90;;;;;;10320809;28;20222;-76
2022/08/20 23:18:59;;;;;;;4.72;3.13;;;20.80;99.90;;;;;;10319802;28;20449;-76
2022/08/20 23:24:20;;;;;;;3.50;3.20;;;20.80;99.90;;;;;;10320413;28;20531;-77
2022/08/20 23:29:42;;;;;;;5.85;3.67;;;20.70;99.90;;;;;;10331598;28;20201;-77
2022/08/20 23:35:04;;;;;;;4.15;3.65;;;20.70;99.90;;;;;;10386262;28;20193;-76
2022/08/20 23:40:26;;;;;;;5.10;4.60;;;20.60;99.90;;;;;;10386071;28;20217;-78
2022/08/20 23:45:48;;;;;;;4.40;4.00;;;;;;;;;;10385791;28;20193;-77
2022/08/20 23:51:10;;;;;;;4.32;3.92;;;20.60;99.90;;;;;;10400338;28;20197;-77
2022/08/20 23:56:31;;;;;;;3.90;3.60;;;20.60;99.90;;;;;;10341873;28;20205;-80
